Fall River, Massachusetts
Current Conditions -  °F | °C
As of 3:53 AM on Sunday 26 Oct 2014 (Local Time) from KEWB Reporting Station
Overcast Overcast  
Wind Chill: 14°   Ceiling: 10000
Heat Index: 14°   Visibility: 10mi
Dew Point:   Wind: 7mph
Humidity: 67%   Direction: 290°WNW
Pressure: 29.46"   Gusts: NA
Location:  41.7°N, 71.14°W
Report Text: KEWB 260753Z AUTO 29006KT 10SM SCT085 OVC100 14/08 A2946 RMK AO2 SLP976 T01390078
Loading
Personal Weather Stations






























Interactive Weather Map
Tropical Storm Tracking
New forecast layout! Learn more

10-Day Weather Forecast

Advertisements
Track Severe Weather on mobile